KLPC/LPC METAR and TAF weather

Enter ICAO airport designator
Station Type Date Time Source
KLPC METAR 2020/04/05 18:56 UTC NOAA

KLPC 051856Z AUTO 18009KT 150V210 9SM -RA 14/11 A2987 RMK AO2 RAB39 SLP115 P0000 T01390111


Station Type Date Time Source
KLPC Decoded METAR 2020/04/05 18:56 UTC NOAA

Lompoc, Lompoc Airport, CA, United States (KLPC) 34-40N 120-28W
Apr 05, 2020 - 02:56 PM EDT / 2020.04.05 1856 UTC
Wind: from the S (180 degrees) at 10 MPH (9 KT) (direction variable):0
Visibility: 9 mile(s):0
Weather: light rain
Precipitation last hour: A trace
Temperature: 57.0 F (13.9 C)
Dew Point: 52.0 F (11.1 C)
Relative Humidity: 83%
Pressure (altimeter): 29.87 in. Hg (1011 hPa)
ob: KLPC 051856Z AUTO 18009KT 150V210 9SM -RA 14/11 A2987 RMK AO2 RAB39 SLP115 P0000 T01390111
cycle: 19

Station Type Date Time Source
KLPC TAF UTC NOAA

Error!

Example: see airport list